createdAt,value
2019-01-05T00:02:38.677Z,104216.57
2019-01-05T00:05:12.604Z,104210.38
2019-01-05T00:07:50.701Z,104205.38
2019-01-05T00:11:23.491Z,104204.41
2019-01-05T00:14:05.539Z,104202.47
2019-01-05T00:16:41.750Z,104207.91
2019-01-05T00:20:18.788Z,104207.10
2019-01-05T00:23:51.707Z,104204.62
2019-01-05T00:27:23.978Z,104194.86
2019-01-05T00:30:01.177Z,104190.66
2019-01-05T00:33:35.774Z,104194.55
2019-01-05T00:36:32.658Z,104189.52
2019-01-05T00:39:06.944Z,104188.16
2019-01-05T00:41:41.667Z,104191.20
2019-01-05T00:44:21.816Z,104197.28
2019-01-05T00:46:56.068Z,104186.83
2019-01-05T00:49:41.544Z,104185.84
2019-01-05T00:52:15.941Z,104176.90
2019-01-05T00:55:47.603Z,104169.17
2019-01-05T01:00:28.778Z,104174.04
2019-01-05T01:03:02.703Z,104185.36
2019-01-05T01:06:08.214Z,104176.41
2019-01-05T01:08:42.348Z,104181.44
2019-01-05T01:11:23.441Z,104177.39
2019-01-05T01:16:01.390Z,104175.22
2019-01-05T01:18:37.579Z,104173.17
2019-01-05T01:21:11.710Z,104176.72
2019-01-05T01:23:45.883Z,104172.84
2019-01-05T01:27:24.613Z,104170.52
2019-01-05T01:29:58.970Z,104162.06
2019-01-05T01:32:39.155Z,104171.17
2019-01-05T01:35:45.726Z,104171.34
2019-01-05T01:38:25.964Z,104173.75
2019-01-05T01:41:01.290Z,104177.48
2019-01-05T01:43:39.292Z,104174.29
2019-01-05T01:46:17.462Z,104173.44
2019-01-05T01:48:51.683Z,104174.45
2019-01-05T01:52:30.186Z,104180.50
2019-01-05T01:55:06.106Z,104178.61
2019-01-05T01:57:46.299Z,104179.96
2019-01-05T02:00:21.804Z,104178.41
2019-01-05T02:03:10.125Z,104172.47
2019-01-05T02:06:47.556Z,104184.77
2019-01-05T02:09:37.802Z,104180.36
2019-01-05T02:12:14.083Z,104180.72
2019-01-05T02:14:51.404Z,104189.52
2019-01-05T02:17:34.731Z,104190.05
2019-01-05T02:20:34.822Z,104186.02
2019-01-05T02:29:25.384Z,104188.92
2019-01-05T02:33:17.363Z,104188.66
2019-01-05T02:37:11.930Z,104187.47
2019-01-05T02:50:01.821Z,104195.89
2019-01-05T02:52:49.474Z,104180.56
2019-01-05T02:57:36.900Z,104182.41
2019-01-05T03:00:40.056Z,104179.22
2019-01-05T03:04:26.914Z,104182.56
2019-01-05T03:07:14.850Z,104178.03
2019-01-05T03:10:15.495Z,104173.33
2019-01-05T03:13:09.091Z,104171.33
2019-01-05T03:15:56.675Z,104164.38
2019-01-05T03:18:45.493Z,104167.23
2019-01-05T03:22:34.498Z,104166.53
2019-01-05T03:25:34.511Z,104160.11
2019-01-05T03:28:39.349Z,104158.40
2019-01-05T03:31:40.270Z,104159.59
2019-01-05T03:38:37.009Z,104154.03
2019-01-05T03:42:56.544Z,104162.54
2019-01-05T03:45:42.532Z,104157.14
2019-01-05T03:48:41.152Z,104156.83
2019-01-05T03:51:25.212Z,104151.27
2019-01-05T03:58:08.557Z,104151.11
2019-01-05T04:00:59.432Z,104140.15
2019-01-05T04:05:56.994Z,104134.22
2019-01-05T04:09:20.563Z,104129.64
2019-01-05T04:12:23.651Z,104138.14
2019-01-05T04:17:12.496Z,104125.48
2019-01-05T04:20:18.207Z,104105.73
2019-01-05T04:25:06.535Z,104112.97
2019-01-05T04:27:53.223Z,104100.87
2019-01-05T04:30:39.253Z,104101.86
2019-01-05T04:35:25.224Z,104098.83
2019-01-05T04:38:12.226Z,104089.39
2019-01-05T04:41:05.757Z,104089.55
2019-01-05T04:43:54.763Z,104082.97
2019-01-05T04:47:29.969Z,104079.74
2019-01-05T04:53:21.309Z,104080.27
2019-01-05T04:56:55.568Z,104082.31
2019-01-05T05:00:46.176Z,104078.22
2019-01-05T05:06:37.010Z,104077.86
2019-01-05T05:09:22.869Z,104080.27
2019-01-05T05:12:17.424Z,104082.97
2019-01-05T05:16:03.409Z,104080.97
2019-01-05T07:48:00.821Z,104099.64
2019-01-05T07:50:45.828Z,104101.84
2019-01-05T07:53:28.873Z,104105.89
2019-01-05T07:56:22.725Z,104099.27
2019-01-05T08:00:19.436Z,104100.98
2019-01-05T08:03:12.139Z,104106.59
2019-01-05T08:08:01.749Z,104111.30
2019-01-05T08:10:46.989Z,104108.96
2019-01-05T08:17:33.175Z,104115.02
2019-01-05T08:21:25.296Z,104127.31
2019-01-05T08:24:13.860Z,104134.39
2019-01-05T08:30:03.342Z,104124.45
2019-01-05T08:32:48.476Z,104132.34
2019-01-05T08:36:36.573Z,104128.30
2019-01-05T08:41:28.205Z,104128.17
2019-01-05T08:46:36.789Z,104138.55
2019-01-05T08:51:23.718Z,104146.96
2019-01-05T08:57:15.070Z,104140.87
2019-01-05T09:00:30.295Z,104137.36
2019-01-05T09:03:15.056Z,104138.70
2019-01-05T09:06:04.283Z,104140.27
2019-01-05T09:11:08.199Z,104141.61
2019-01-05T09:14:53.394Z,104141.09
2019-01-05T09:17:41.083Z,104136.91
2019-01-05T09:20:32.176Z,104147.38
2019-01-05T09:23:20.920Z,104144.36
2019-01-05T09:26:04.977Z,104150.95
2019-01-05T09:29:31.897Z,104146.41
2019-01-05T09:34:22.196Z,104144.77
2019-01-05T09:39:18.668Z,104142.09
2019-01-05T09:42:10.639Z,104150.38
2019-01-05T09:44:57.800Z,104148.71
2019-01-05T09:48:35.597Z,104142.17
2019-01-05T09:51:22.595Z,104142.17
2019-01-05T09:55:13.655Z,104138.13
2019-01-05T09:59:11.411Z,104140.00
2019-01-05T10:02:03.167Z,104140.53
2019-01-05T10:09:01.347Z,104130.93
2019-01-05T10:13:04.722Z,104134.16
2019-01-05T10:15:52.860Z,104134.20
2019-01-05T10:18:47.554Z,104130.52
2019-01-05T10:21:36.379Z,104130.72
2019-01-05T10:24:22.732Z,104124.50
2019-01-05T10:29:13.826Z,104136.31
2019-01-05T10:32:32.254Z,104119.13
2019-01-05T10:35:43.316Z,104123.22
2019-01-05T10:38:41.020Z,104118.51
2019-01-05T10:41:27.573Z,104120.71
2019-01-05T10:47:20.931Z,104121.24
2019-01-05T10:52:12.076Z,104122.27
2019-01-05T10:55:29.400Z,104116.89
2019-01-05T11:00:51.328Z,104117.05
2019-01-05T11:04:43.801Z,104106.81
2019-01-05T11:08:27.364Z,104102.62
2019-01-05T11:13:28.630Z,104105.02
2019-01-05T11:16:26.303Z,104100.96
2019-01-05T11:19:47.819Z,104098.13
2019-01-05T11:25:36.111Z,104094.23
2019-01-05T11:29:30.741Z,104095.77
2019-01-05T11:32:32.546Z,104084.30
2019-01-05T11:36:17.409Z,104077.38
2019-01-05T11:39:04.128Z,104073.48
2019-01-05T11:45:00.757Z,104071.47
2019-01-05T11:48:06.280Z,104068.62
2019-01-05T11:51:54.207Z,104062.91
2019-01-05T11:54:38.920Z,104054.30
2019-01-05T11:58:25.531Z,104060.38
2019-01-05T12:03:26.438Z,104058.71
2019-01-05T12:08:14.884Z,104063.13
2019-01-05T12:11:33.783Z,104051.15
2019-01-05T12:16:24.644Z,104053.68
2019-01-05T12:20:06.994Z,104045.91
2019-01-05T12:25:13.158Z,104034.42
2019-01-05T12:28:06.734Z,104030.38
2019-01-05T12:33:01.129Z,104034.09
2019-01-05T12:36:02.294Z,104029.70
2019-01-05T12:39:34.408Z,104037.14
2019-01-05T12:43:28.111Z,104034.27
2019-01-05T12:46:35.608Z,104029.86
2019-01-05T12:49:32.235Z,104032.92
2019-01-05T12:54:40.674Z,104032.25
2019-01-05T13:00:03.763Z,104033.92
2019-01-05T13:08:02.616Z,104027.34
2019-01-05T13:10:58.189Z,104034.77
2019-01-05T13:13:47.063Z,104021.41
2019-01-05T13:16:38.000Z,104027.33
2019-01-05T13:20:25.483Z,104024.80
2019-01-05T13:23:27.540Z,104026.66
2019-01-05T13:28:25.033Z,104024.78
2019-01-05T13:32:47.924Z,104016.84
2019-01-05T13:35:36.760Z,104018.02
2019-01-05T13:41:01.564Z,104019.72
2019-01-05T13:44:37.728Z,104022.58
2019-01-05T13:47:29.378Z,104011.10
2019-01-05T13:51:19.954Z,104010.75
2019-01-05T13:54:09.841Z,104009.08
2019-01-05T13:56:49.491Z,104013.63
2019-01-05T13:59:24.063Z,104020.89
2019-01-05T14:02:30.638Z,104011.10
2019-01-05T14:07:12.338Z,104017.51
2019-01-05T14:09:49.372Z,104014.48
2019-01-05T14:12:23.561Z,104019.39
2019-01-05T14:14:58.409Z,104017.02
2019-01-05T14:17:47.624Z,104015.48
2019-01-05T14:20:21.798Z,104019.54
2019-01-05T14:23:58.260Z,104020.89
2019-01-05T14:26:34.261Z,104025.12
2019-01-05T14:31:16.439Z,104029.69
2019-01-05T14:33:50.466Z,104033.25
2019-01-05T14:36:28.521Z,104033.06
2019-01-05T14:39:04.443Z,104035.28
2019-01-05T14:41:53.475Z,104031.05
2019-01-05T14:44:27.852Z,104037.31
2019-01-05T14:47:02.521Z,104043.05
2019-01-05T14:49:36.775Z,104032.22
2019-01-05T14:54:17.273Z,104039.17
2019-01-05T14:58:54.063Z,104051.34
2019-01-05T15:01:28.114Z,104050.31
2019-01-05T15:04:02.185Z,104052.70
2019-01-05T15:06:37.262Z,104047.28
2019-01-05T15:10:14.778Z,104046.25
2019-01-05T15:13:06.259Z,104049.99
2019-01-05T15:15:40.271Z,104048.28
2019-01-05T15:18:14.716Z,104047.96
2019-01-05T15:20:49.918Z,104042.72
2019-01-05T15:23:23.158Z,104040.19
2019-01-05T15:26:01.193Z,104033.75
2019-01-05T15:28:35.293Z,104036.63
2019-01-05T15:31:14.674Z,104036.80
2019-01-05T15:33:48.826Z,104024.62
2019-01-05T15:36:23.141Z,104016.51
2019-01-05T15:41:02.270Z,104017.18
2019-01-05T15:43:44.355Z,104010.09
2019-01-05T15:46:23.417Z,104005.36
2019-01-05T15:48:56.507Z,104009.77
2019-01-05T15:51:33.952Z,104008.41
2019-01-05T15:54:14.964Z,104011.79
2019-01-05T15:58:53.080Z,104013.28
2019-01-05T16:02:30.338Z,104009.75
2019-01-05T16:05:09.306Z,104013.48
2019-01-05T16:08:01.241Z,104017.19
2019-01-05T16:10:34.745Z,104009.74
2019-01-05T16:13:11.966Z,104006.72
2019-01-05T16:17:51.840Z,104009.25
2019-01-05T16:21:27.664Z,104001.48
2019-01-05T16:24:38.243Z,104006.89
2019-01-05T16:28:12.952Z,104004.34
2019-01-05T16:30:53.207Z,104009.74
2019-01-05T16:33:27.313Z,104004.19
2019-01-05T16:36:34.888Z,104003.83
2019-01-05T16:39:09.184Z,104002.97
2019-01-05T16:42:42.363Z,104002.66
2019-01-05T16:47:20.216Z,103990.31
2019-01-05T16:51:57.137Z,103989.80
2019-01-05T16:54:41.815Z,103991.50
2019-01-05T16:57:17.698Z,103993.84
2019-01-05T17:00:55.534Z,104000.47
2019-01-05T17:04:28.954Z,103991.83
2019-01-05T17:07:04.005Z,103992.19
2019-01-05T17:10:38.694Z,103988.13
2019-01-05T17:14:15.383Z,103988.45
2019-01-05T17:16:56.390Z,103977.31
2019-01-05T17:19:36.478Z,103973.42
2019-01-05T17:22:06.763Z,103968.16
2019-01-05T17:25:43.517Z,103959.40
2019-01-05T17:28:17.911Z,103974.27
2019-01-05T17:31:58.883Z,103987.80
2019-01-05T17:34:35.384Z,103986.44
2019-01-05T17:37:12.239Z,103987.44
2019-01-05T17:39:46.274Z,103984.23
2019-01-05T17:43:20.227Z,103984.41
2019-01-05T17:45:54.576Z,103975.62
2019-01-05T17:48:30.514Z,103971.56
2019-01-05T17:51:04.717Z,103974.77
2019-01-05T17:53:41.556Z,103976.11
2019-01-05T17:56:17.608Z,103973.91
2019-01-05T17:59:55.183Z,103973.58
2019-01-05T18:03:32.317Z,103966.64
2019-01-05T18:12:33.827Z,103969.52
2019-01-05T18:15:08.114Z,103972.21
2019-01-05T18:18:00.223Z,103959.72
2019-01-05T18:20:34.615Z,103965.13
2019-01-05T18:23:39.936Z,103966.48
2019-01-05T18:28:18.651Z,103961.92
2019-01-05T18:30:52.856Z,103970.86
2019-01-05T18:35:30.102Z,103964.63
2019-01-05T18:38:06.235Z,103965.63
2019-01-05T18:41:14.838Z,103970.54
2019-01-05T18:43:56.051Z,103968.16
2019-01-05T18:46:30.245Z,103961.75
2019-01-05T18:49:07.268Z,103957.70
2019-01-05T18:53:44.617Z,103963.78
2019-01-05T18:56:25.550Z,103961.75
2019-01-05T18:59:07.605Z,103959.05
2019-01-05T19:03:50.440Z,103960.05
2019-01-05T19:08:29.945Z,103960.90
2019-01-05T19:11:04.222Z,103964.63
2019-01-05T19:20:08.197Z,103962.92
2019-01-05T19:22:42.349Z,103961.25
2019-01-05T19:25:28.674Z,103960.89
2019-01-05T19:29:02.589Z,103960.89
2019-01-05T19:32:35.405Z,103948.05
2019-01-05T19:35:40.915Z,103942.14
2019-01-05T19:38:15.214Z,103948.41
2019-01-05T19:40:49.738Z,103952.09
2019-01-05T19:43:23.820Z,103961.92
2019-01-05T19:48:05.274Z,103965.30
2019-01-05T19:52:42.394Z,103961.75
2019-01-05T19:57:19.817Z,103958.37
2019-01-05T19:59:53.916Z,103959.05
2019-01-05T20:02:38.011Z,103959.05
2019-01-05T20:05:12.344Z,103964.46
2019-01-05T20:07:48.312Z,103965.64
2019-01-05T20:10:23.617Z,103966.49
2019-01-05T20:12:58.021Z,103965.96
2019-01-05T20:17:38.453Z,103970.88
2019-01-05T20:22:16.039Z,103965.96
2019-01-05T20:25:00.078Z,103967.66
2019-01-05T20:28:06.803Z,103976.63
2019-01-05T20:30:40.948Z,103972.21
2019-01-05T20:33:15.131Z,103972.57
2019-01-05T20:35:49.297Z,103969.87
2019-01-05T20:38:23.486Z,103964.11
2019-01-05T20:43:01.320Z,103961.92
2019-01-05T20:45:35.750Z,103962.42
2019-01-05T20:48:10.027Z,103962.42
2019-01-05T20:50:49.576Z,103968.33
2019-01-05T20:53:23.902Z,103964.77
2019-01-05T20:55:57.937Z,103964.45
2019-01-05T20:58:33.939Z,103968.83
2019-01-05T21:01:22.602Z,103971.89
2019-01-05T21:03:58.755Z,103969.19
2019-01-05T21:06:33.075Z,103974.42
2019-01-05T21:11:10.072Z,103975.59
2019-01-05T21:13:44.292Z,103970.19
2019-01-05T21:16:27.134Z,103971.55
2019-01-05T21:19:02.561Z,103977.62
2019-01-05T21:21:41.570Z,103974.75
2019-01-05T21:25:17.720Z,103973.94
2019-01-05T21:29:54.483Z,103969.52
2019-01-05T21:32:28.745Z,103973.58
2019-01-05T21:35:03.073Z,103967.84
2019-01-05T21:37:46.127Z,103969.02
2019-01-05T21:40:20.522Z,103956.50
2019-01-05T21:43:01.043Z,103960.06
2019-01-05T21:45:38.231Z,103964.47
2019-01-05T21:48:18.186Z,103959.88
2019-01-05T21:51:00.383Z,103955.33
2019-01-05T21:55:37.110Z,103962.95
2019-01-05T21:58:20.436Z,103943.48
2019-01-05T22:00:54.376Z,103950.77
2019-01-05T22:03:33.308Z,103946.89
2019-01-05T22:07:06.270Z,103941.81
2019-01-05T22:09:40.780Z,103939.60
2019-01-05T22:12:15.121Z,103951.27
2019-01-05T22:14:52.220Z,103937.75
2019-01-05T22:17:36.556Z,103939.11
2019-01-05T22:20:13.177Z,103937.43
2019-01-05T22:24:50.919Z,103937.93
2019-01-05T22:27:25.121Z,103940.63
2019-01-05T22:29:59.044Z,103932.52
2019-01-05T22:32:33.099Z,103942.48
2019-01-05T22:35:08.174Z,103930.49
2019-01-05T22:37:44.858Z,103931.34
2019-01-05T22:41:16.670Z,103937.08
2019-01-05T22:43:50.628Z,103920.53
2019-01-05T22:46:25.027Z,103927.97
2019-01-05T22:49:58.001Z,103919.86
2019-01-05T22:54:40.581Z,103924.73
2019-01-05T22:57:14.769Z,103920.35
2019-01-05T22:59:51.756Z,103922.20
2019-01-05T23:04:29.531Z,103929.99
2019-01-05T23:07:03.493Z,103922.55
2019-01-05T23:09:37.678Z,103913.59
2019-01-05T23:12:12.019Z,103925.08
2019-01-05T23:14:46.124Z,103918.65
2019-01-05T23:19:27.946Z,103916.80
2019-01-05T23:22:01.926Z,103915.80
2019-01-05T23:24:36.087Z,103917.16
2019-01-05T23:27:26.123Z,103907.34
2019-01-05T23:30:00.267Z,103911.75
2019-01-05T23:33:07.776Z,103910.03
2019-01-05T23:35:41.974Z,103905.98
2019-01-05T23:38:15.835Z,103904.13
2019-01-05T23:40:49.878Z,103901.92
2019-01-05T23:43:25.404Z,103905.48
2019-01-05T23:46:01.531Z,103894.67
2019-01-05T23:48:36.046Z,103899.58
2019-01-05T23:52:07.869Z,103897.37
2019-01-05T23:54:43.758Z,103899.91
2019-01-05T23:58:19.360Z,103903.10
